Airfield :







YOU CAN JOIN US ON...

 
LOGIN :

Register | Disclaimer

   EN    FR    IT 

 









Legend :    VFR   Marginal VFR   IFR   Intensive IFR   Very Intensive IFR
Visi :
Ceiling :
>= 8 km
>= 3000ft
5 to 8 km
1000 to 3000 ft
1500m to 5 km
500 to 1000 ft
800 to 1500m
200 to 500 ft
< 800m
< 200 ft
Symbols :   Thunderstorms  Fog  Heavy snow  Heavy precipitations  Wind > 20 kt






- Airport Elevation : 107 ft


KBVY - Beverly Municipal

CURRENT METAR :
  • 192153Z 14009KT 10SM CLR 24/13 A3005 RMK AO2 SLP169 T02440133

EXPIRED METARs :
  • 192053Z 14008KT 10SM CLR 25/13 A3005 RMK AO2 SLP170 T02500128 56005
  • 191953Z 14008KT 10SM CLR 25/12 A3005 RMK AO2 SLP171 T02500122
  • 191853Z 13009KT 10SM CLR 26/13 A3006 RMK AO2 SLP174 T02560128
  • 191753Z 14010KT 10SM CLR 25/13 A3007 RMK AO2 SLP175 T02500133 10256 20200 56002

TAF N/A
KZBW FIR / North America



MET'MAP, your aeronautical weather chart ! - Copyright ORBIFLY December 2007 - Disclaimer

ORBIFLY MET'MAP TEAM :

Programming & Development : Alexandra Zaïnal
Original concept : Baudouin d'Aumeries
Technical & hardware support : Manuel Goepfert
Assistance : Marc-Olivier Méhu




SOURCES & CREDITS :

   NOAA